首页
METAR-TAF:

METAR-TAF

机场 :

Marham, 英格兰

纬度: 52-39N, 经度: 000-34E, 海拔: 23米

当前天气观测

该预报发布于53分钟前的15:50 UTC
风速9节,风向东转东北
温度 23°C
湿度 41%
气压 1023 hPa
能见度10公里或以上
1500米以下无云,无积雨云

METAR: EGYM 011550Z 07009KT CAVOK 23/09 Q1023 NOSIG RMK BLU BLU

时间: 17:43 (16:43 UTC)

预报

该预报发布于2小时和9分钟前的14:34 UTC
预报有效从01日的 15点(UTC)到 01日的 24点(UTC)
风速10节,风向东转东北
能见度10公里或以上
少量云层高于4500英尺

TAF: EGYM 011434Z 0115/0124 07010KT 9999 FEW045

超过4000个机场的气象观测和天气预报(METAR&TAF报告)。

可查询的气象台以黄色和红色小点在地图上表示。

将鼠标移到小点上方,可查看气象台名称。

然后点击查看天气观测和预报。

如需切换地图:点击带黑十字的绿色按钮放大地图;点击带横线的绿色按钮缩小地图;或者点击绿色箭头查看邻近地区的地图。


METAR-TAF: